Ocontofalls, Wisconsin
Current Conditions -  °F | °C
As of 10:15 AM on Friday 24 Oct 2014 (Local Time) from KOCQ Reporting Station
Overcast Overcast  
Wind Chill:   Ceiling: 400
Heat Index:   Visibility: 5mi
Dew Point:   Wind: 6mph
Humidity: 100%   Direction: 250°WSW
Pressure: 30.01"   Gusts: NA
Location:  44.8816°N, 88.1735°W
Report Text: KOCQ 241515Z AUTO 25005KT 5SM OVC004 08/08 A3001 RMK AO1 T00800080
Loading
Personal Weather Stations






























Interactive Weather Map
Tropical Storm Tracking
New forecast layout! Learn more

10-Day Weather Forecast

Advertisements
Track Severe Weather on mobile